Time;durP1;ratioP1;P1;durP2;ratioP2;P2;SDS_P1;SDS_P2;PMS_P1;PMS_P2;Temp;Humidity;BMP_temperature;BMP_pressure;BME280_temperature;BME280_humidity;BME280_pressure;Samples;Min_cycle;Max_cycle;Signal;HPM_P1;HPM_P2
2021/07/10 00:01:23;;;;;;;2.30;1.43;;;;;;;15.19;100.00;101059.69;5055054;28;20479;-77
2021/07/10 00:03:49;;;;;;;2.50;1.57;;;;;;;15.18;100.00;101069.78;5054991;28;20470;-76
2021/07/10 00:06:16;;;;;;;1.77;1.23;;;;;;;15.22;100.00;101078.94;5054783;28;20963;-76
2021/07/10 00:08:44;;;;;;;2.10;1.40;;;;;;;15.19;100.00;101073.34;5055065;28;20453;-77
2021/07/10 00:11:10;;;;;;;1.37;1.17;;;;;;;15.20;100.00;101078.47;5054417;28;20935;-76
2021/07/10 00:13:36;;;;;;;2.90;1.77;;;;;;;15.20;100.00;101078.47;5054928;28;20478;-75
2021/07/10 00:16:03;;;;;;;1.20;1.07;;;;;;;15.20;100.00;101080.41;5054981;28;20491;-77
2021/07/10 00:18:30;;;;;;;2.03;1.60;;;;;;;15.18;100.00;101080.69;5054887;28;20862;-75
2021/07/10 00:20:56;;;;;;;1.63;1.20;;;;;;;15.18;100.00;101082.63;5054606;28;20445;-75
2021/07/10 00:23:23;;;;;;;1.77;1.50;;;;;;;15.21;100.00;101071.88;5054572;28;20482;-75
2021/07/10 00:25:50;;;;;;;1.60;0.90;;;;;;;15.22;100.00;101083.59;5054690;28;20445;-74
2021/07/10 00:28:17;;;;;;;1.00;0.83;;;;;;;15.23;100.00;101077.00;5054643;28;20438;-75
2021/07/10 00:30:43;;;;;;;2.60;1.50;;;;;;;15.19;100.00;101085.06;5054636;28;20560;-73
2021/07/10 00:33:10;;;;;;;1.70;1.20;;;;;;;15.17;100.00;101068.19;5054204;28;20438;-73
2021/07/10 00:35:36;;;;;;;2.27;1.47;;;;;;;15.20;100.00;101075.75;5054144;28;20446;-74
2021/07/10 00:38:04;;;;;;;1.03;0.90;;;;;;;15.21;100.00;101074.59;5054602;28;20443;-75
2021/07/10 00:40:30;;;;;;;2.10;0.90;;;;;;;15.26;100.00;101079.91;5054166;28;20919;-75
2021/07/10 00:42:58;;;;;;;1.63;1.53;;;;;;;15.28;100.00;101076.88;5054361;28;20852;-74
2021/07/10 00:45:24;;;;;;;1.13;1.00;;;;;;;15.23;100.00;101077.00;5054263;28;20443;-74
2021/07/10 00:47:51;;;;;;;1.30;1.00;;;;;;;15.28;100.00;101074.94;5054294;28;20449;-75
2021/07/10 00:50:19;;;;;;;1.33;1.20;;;;;;;15.34;100.00;101084.56;5054339;28;20469;-76
2021/07/10 00:52:46;;;;;;;1.20;1.07;;;;;;;15.37;100.00;101074.94;5054249;28;20449;-74
2021/07/10 00:55:13;;;;;;;1.70;1.17;;;;;;;15.38;100.00;101082.00;5053889;28;20987;-74
2021/07/10 00:57:42;;;;;;;6.27;1.50;;;;;;;15.38;100.00;101076.53;5054136;28;20513;-73
2021/07/10 01:00:13;;;;;;;2.23;1.20;;;;;;;15.39;100.00;101076.22;5054025;28;20821;-74
2021/07/10 01:02:42;;;;;;;1.50;1.07;;;;;;;15.41;100.00;101078.66;5054037;28;20430;-74
2021/07/10 01:05:12;;;;;;;1.20;1.10;;;;;;;15.41;100.00;101084.09;5053935;28;20458;-72
2021/07/10 01:07:39;;;;;;;1.43;1.33;;;;;;;15.34;100.00;101070.91;5054095;28;20434;-75
2021/07/10 01:10:07;;;;;;;1.77;1.57;;;;;;;15.37;100.00;101074.94;5054219;28;20453;-73
2021/07/10 01:12:34;;;;;;;1.90;1.40;;;;;;;15.34;100.00;101076.38;5053953;28;20442;-74
2021/07/10 01:15:01;;;;;;;1.20;1.10;;;;;;;15.33;100.00;101066.59;5053854;28;20459;-74
2021/07/10 01:17:28;;;;;;;1.90;1.77;;;;;;;15.35;100.00;101077.97;5053477;28;20484;-75
2021/07/10 01:19:59;;;;;;;2.47;1.80;;;;;;;15.33;100.00;101073.97;5053884;28;20450;-76
2021/07/10 01:22:27;;;;;;;2.10;1.60;;;;;;;15.31;100.00;101074.28;5053884;28;20450;-77
2021/07/10 01:24:54;;;;;;;2.20;1.70;;;;;;;15.31;100.00;101073.47;5053104;28;20513;-76
2021/07/10 01:27:21;;;;;;;2.33;1.60;;;;;;;15.35;100.00;101075.25;5053980;28;20450;-76
2021/07/10 01:29:48;;;;;;;1.80;1.30;;;;;;;15.36;100.00;101067.84;5053763;28;20446;-77
2021/07/10 01:32:17;;;;;;;2.77;1.77;;;;;;;15.39;100.00;101067.22;5053697;28;20434;-74
2021/07/10 01:34:45;;;;;;;1.73;1.20;;;;;;;15.39;100.00;101062.56;5053525;28;20465;-74
2021/07/10 01:37:11;;;;;;;8.90;1.90;;;;;;;15.39;100.00;101062.56;5053776;28;20481;-72
2021/07/10 01:39:39;;;;;;;2.30;1.77;;;;;;;15.41;100.00;101054.06;5053600;28;20454;-74
2021/07/10 01:42:06;;;;;;;2.20;1.90;;;;;;;15.42;100.00;101058.41;5053669;28;20449;-72
2021/07/10 01:44:33;;;;;;;2.03;1.60;;;;;;;15.45;100.00;101062.41;5053040;28;20833;-74
2021/07/10 01:46:59;;;;;;;1.60;1.20;;;;;;;15.46;100.00;101066.75;5053368;28;20445;-76
2021/07/10 01:49:25;;;;;;;3.80;2.10;;;;;;;15.45;100.00;101059.66;5053501;28;20446;-74
2021/07/10 01:51:52;;;;;;;2.90;2.20;;;;;;;15.48;100.00;101061.75;5053453;28;20442;-75
2021/07/10 01:54:18;;;;;;;4.40;2.37;;;;;;;15.50;100.00;101057.59;5053285;28;20470;-73
2021/07/10 01:56:46;;;;;;;2.70;1.77;;;;;;;15.51;100.00;101058.41;5053178;28;20482;-74
2021/07/10 01:59:12;;;;;;;2.30;2.03;;;;;;;15.53;100.00;101061.59;5053427;28;20449;-72
2021/07/10 02:01:39;;;;;;;2.83;2.20;;;;;;;15.54;100.00;101061.28;5053216;28;20809;-73
2021/07/10 02:04:07;;;;;;;3.90;2.50;;;;;;;15.56;100.00;101058.22;5053314;28;20467;-73
2021/07/10 02:06:34;;;;;;;4.10;2.30;;;;;;;15.55;100.00;101049.25;5053110;28;20869;-73
2021/07/10 02:09:00;;;;;;;1.80;1.60;;;;;;;15.59;100.00;101052.13;5053089;28;20454;-73
2021/07/10 02:11:27;;;;;;;4.33;2.20;;;;;;;15.61;100.00;101052.59;5052924;28;20935;-73
2021/07/10 02:13:55;;;;;;;3.90;2.27;;;;;;;15.62;100.00;101048.72;5052743;28;20974;-73
2021/07/10 02:16:21;;;;;;;2.80;1.70;;;;;;;15.66;100.00;101041.53;5053136;28;20859;-73
2021/07/10 02:18:47;;;;;;;1.93;1.73;;;;;;;15.67;100.00;101045.91;5052952;28;20434;-72
2021/07/10 02:21:14;;;;;;;3.60;2.17;;;;;;;15.67;100.00;101043.16;5053014;28;20454;-72
2021/07/10 02:23:40;;;;;;;4.13;3.03;;;;;;;15.69;100.00;101043.63;5052788;28;20478;-73
2021/07/10 02:26:07;;;;;;;6.80;2.70;;;;;;;15.76;100.00;101045.84;5052984;28;20446;-73
2021/07/10 02:28:33;;;;;;;2.80;2.13;;;;;;;15.78;100.00;101047.13;5052960;28;20856;-73
2021/07/10 02:31:01;;;;;;;12.23;2.57;;;;;;;15.78;100.00;101044.41;5052520;28;20445;-73
2021/07/10 02:33:27;;;;;;;5.57;2.63;;;;;;;15.78;100.00;101041.69;5052589;28;20509;-72
2021/07/10 02:35:54;;;;;;;5.00;2.83;;;;;;;15.83;100.00;101044.22;5056072;28;20813;-72
2021/07/10 02:38:20;;;;;;;4.70;2.73;;;;;;;15.85;100.00;101050.19;5056754;28;20489;-73
2021/07/10 02:40:47;;;;;;;5.07;3.30;;;;;;;15.86;100.00;101040.84;5056821;28;20446;-73
2021/07/10 02:43:15;;;;;;;3.40;2.10;;;;;;;15.90;100.00;101043.75;5056861;28;20474;-73
2021/07/10 02:45:42;;;;;;;3.17;2.63;;;;;;;15.94;100.00;101046.59;5056999;28;20454;-74
2021/07/10 02:48:10;;;;;;;3.90;3.00;;;;;;;15.92;100.00;101054.34;5056774;28;20449;-74
2021/07/10 02:50:37;;;;;;;3.93;2.47;;;;;;;15.93;100.00;101050.47;5056559;28;20441;-72
2021/07/10 02:53:04;;;;;;;2.63;1.80;;;;;;;15.95;100.00;101048.22;5056738;28;20442;-69
2021/07/10 02:55:31;;;;;;;2.77;2.03;;;;;;;15.94;100.00;101044.69;5056434;28;20454;-71
2021/07/10 02:57:58;;;;;;;4.50;2.53;;;;;;;15.95;100.00;101050.97;5056193;28;20477;-71
2021/07/10 03:00:26;;;;;;;3.90;2.97;;;;;;;15.98;100.00;101051.13;5056306;28;20453;-71
2021/07/10 03:02:53;;;;;;;4.30;2.50;;;;;;;15.94;100.00;101047.44;5056249;28;20453;-71
2021/07/10 03:05:20;;;;;;;3.03;1.57;;;;;;;15.97;100.00;101046.75;5056182;28;20442;-71
2021/07/10 03:07:47;;;;;;;4.23;2.60;;;;;;;15.97;100.00;101054.16;5056101;28;20445;-71
2021/07/10 03:10:15;;;;;;;3.90;2.47;;;;;;;15.94;100.00;101065.72;5056226;28;20484;-71
2021/07/10 03:12:42;;;;;;;3.57;2.73;;;;;;;15.98;100.00;101056.59;5056115;28;20442;-72
2021/07/10 03:15:10;;;;;;;3.97;2.37;;;;;;;15.97;100.00;101056.91;5055455;28;20484;-72
2021/07/10 03:17:37;;;;;;;3.83;2.03;;;;;;;15.96;100.00;101055.28;5055859;28;20477;-72
2021/07/10 03:20:04;;;;;;;2.63;2.30;;;;;;;15.94;100.00;101054.81;5055870;28;20446;-72
2021/07/10 03:22:32;;;;;;;5.87;2.60;;;;;;;15.92;100.00;101046.16;5055820;28;20446;-72
2021/07/10 03:24:59;;;;;;;2.67;1.80;;;;;;;15.94;100.00;101044.69;5055456;28;20481;-72
2021/07/10 03:27:25;;;;;;;3.90;2.50;;;;;;;15.98;100.00;101042.09;5055793;28;20445;-71
2021/07/10 03:29:52;;;;;;;3.40;2.30;;;;;;;15.98;100.00;101045.66;5055466;28;20840;-72
2021/07/10 03:32:18;;;;;;;2.80;2.53;;;;;;;15.99;100.00;101043.72;5055953;28;20438;-72
2021/07/10 03:34:45;;;;;;;5.03;2.90;;;;;;;15.99;100.00;101041.00;5055240;28;20984;-72
2021/07/10 03:37:11;;;;;;;3.50;2.23;;;;;;;15.98;100.00;101045.66;5055530;28;20490;-72
2021/07/10 03:39:39;;;;;;;4.37;2.53;;;;;;;15.98;100.00;101048.38;5055479;28;20951;-73
2021/07/10 03:42:06;;;;;;;5.90;3.77;;;;;;;15.99;100.00;101049.19;5055572;28;20454;-72
2021/07/10 03:44:32;;;;;;;3.97;2.37;;;;;;;16.00;100.00;101048.06;5055427;28;20863;-72
2021/07/10 03:46:59;;;;;;;4.90;2.70;;;;;;;16.01;100.00;101050.44;5054766;28;20445;-72
2021/07/10 03:49:25;;;;;;;7.93;2.57;;;;;;;15.95;100.00;101051.75;5055300;28;20441;-70
2021/07/10 03:51:52;;;;;;;3.87;2.50;;;;;;;15.98;100.00;101051.13;5055512;28;20450;-71
2021/07/10 03:54:18;;;;;;;6.73;3.90;;;;;;;15.97;100.00;101051.44;5053886;28;20870;-69
2021/07/10 03:56:46;;;;;;;5.70;2.90;;;;;;;15.98;100.00;101058.50;5055376;28;20438;-70
2021/07/10 03:59:13;;;;;;;5.13;2.33;;;;;;;15.93;100.00;101058.66;5055021;28;20952;-71
2021/07/10 04:01:41;;;;;;;3.20;2.80;;;;;;;15.87;100.00;101067.03;5055166;28;20442;-71
2021/07/10 04:04:08;;;;;;;5.30;3.13;;;;;;;15.89;100.00;101062.06;5055007;28;20497;-70
2021/07/10 04:06:35;;;;;;;5.83;3.63;;;;;;;15.88;100.00;101057.72;5055181;28;20534;-70
2021/07/10 04:09:01;;;;;;;4.47;2.50;;;;;;;15.93;100.00;101062.19;5055347;28;20438;-71
2021/07/10 04:11:29;;;;;;;7.53;3.83;;;;;;;15.90;100.00;101068.34;5055043;28;20454;-71
2021/07/10 04:13:57;;;;;;;4.30;2.60;;;;;;;15.93;100.00;101064.13;5054985;28;20462;-70
2021/07/10 04:16:23;;;;;;;6.40;3.40;;;;;;;15.94;100.00;101072.03;5055122;28;20442;-71
2021/07/10 04:18:50;;;;;;;3.97;2.37;;;;;;;15.99;100.00;101079.25;5054953;28;20509;-70
2021/07/10 04:21:17;;;;;;;3.90;2.93;;;;;;;15.94;100.00;101091.16;5054869;28;20449;-71
2021/07/10 04:26:11;;;;;;;3.90;3.10;;;;;;;15.94;100.00;101090.31;5031759;28;20471;-69
2021/07/10 04:28:37;;;;;;;4.67;2.17;;;;;;;15.93;100.00;101089.53;5034848;28;20446;-69
2021/07/10 04:31:05;;;;;;;6.40;3.40;;;;;;;15.93;100.00;101092.25;5034950;28;20454;-68
2021/07/10 04:33:31;;;;;;;4.03;2.60;;;;;;;15.96;100.00;101102.53;5034672;28;20498;-67
2021/07/10 04:35:58;;;;;;;3.10;2.37;;;;;;;15.92;100.00;101095.31;5034641;28;20474;-68
2021/07/10 04:38:24;;;;;;;4.70;3.30;;;;;;;15.93;100.00;101110.59;5034540;28;20490;-68
2021/07/10 04:40:51;;;;;;;6.00;3.60;;;;;;;15.92;100.00;101104.31;5034826;28;20447;-68
2021/07/10 04:43:17;;;;;;;7.70;3.30;;;;;;;15.97;100.00;101106.06;5034532;28;20447;-68
2021/07/10 04:45:43;;;;;;;4.57;2.87;;;;;;;16.00;100.00;101114.44;5034423;28;20874;-68
2021/07/10 04:48:12;;;;;;;4.90;2.80;;;;;;;16.00;100.00;101111.69;5034135;28;20450;-68
2021/07/10 04:50:38;;;;;;;5.80;4.00;;;;;;;15.97;100.00;101114.28;5034402;28;20443;-67
2021/07/10 04:53:04;;;;;;;3.77;2.83;;;;;;;16.01;100.00;101121.50;5034358;28;20458;-67
2021/07/10 04:55:31;;;;;;;6.73;3.50;;;;;;;16.06;100.00;101115.84;5034206;28;20467;-69
2021/07/10 04:57:57;;;;;;;6.10;3.43;;;;;;;16.01;100.00;101128.91;5033462;28;20549;-68
2021/07/10 05:00:24;;;;;;;4.93;2.97;;;;;;;16.01;100.00;101118.75;5034177;28;20451;-69
2021/07/10 05:02:51;;;;;;;4.23;2.60;;;;;;;16.03;100.00;101126.66;5033883;28;20941;-68
2021/07/10 05:05:19;;;;;;;6.50;3.27;;;;;;;16.00;100.00;101140.97;5034104;28;20447;-68
2021/07/10 05:07:46;;;;;;;6.30;3.67;;;;;;;16.03;100.00;101143.84;5034262;28;20435;-68
2021/07/10 05:10:13;;;;;;;5.60;3.00;;;;;;;16.07;100.00;101149.44;5034028;28;20442;-69
2021/07/10 05:12:39;;;;;;;7.27;4.20;;;;;;;16.05;100.00;101154.44;5033772;28;20937;-69
2021/07/10 05:15:07;;;;;;;6.33;2.93;;;;;;;16.11;100.00;101147.69;5033952;28;20466;-68
2021/07/10 05:17:33;;;;;;;5.60;2.97;;;;;;;16.12;100.00;101152.84;5033918;28;20486;-69
2021/07/10 05:20:00;;;;;;;5.00;3.17;;;;;;;16.03;100.00;101151.25;5033952;28;20451;-68
2021/07/10 05:22:28;;;;;;;5.27;3.30;;;;;;;16.11;100.00;101153.16;5033762;28;20439;-67
2021/07/10 05:24:55;;;;;;;6.10;3.20;;;;;;;16.14;100.00;101157.97;5033548;28;20541;-67
2021/07/10 05:27:21;;;;;;;5.30;3.37;;;;;;;16.14;100.00;101161.50;5033451;28;20955;-67
2021/07/10 05:29:48;;;;;;;7.50;4.10;;;;;;;16.21;100.00;101152.81;5033747;28;20526;-67
2021/07/10 05:32:15;;;;;;;4.50;3.17;;;;;;;16.23;100.00;101164.22;5033366;28;20966;-67
2021/07/10 05:34:42;;;;;;;7.23;3.10;;;;;;;16.19;100.00;101163.25;5033505;28;20470;-67
2021/07/10 05:37:09;;;;;;;6.80;3.73;;;;;;;16.26;100.00;101165.50;5033241;28;20519;-67
2021/07/10 05:39:38;;;;;;;4.17;3.00;;;;;;;16.25;100.00;101164.72;5033520;28;20443;-67
2021/07/10 05:42:06;;;;;;;7.10;4.03;;;;;;;16.26;100.00;101163.59;5033578;28;20442;-67
2021/07/10 05:44:32;;;;;;;6.43;3.47;;;;;;;16.31;100.00;101163.41;5033423;28;20462;-67
2021/07/10 05:46:59;;;;;;;6.30;3.70;;;;;;;16.37;100.00;101161.28;5033525;28;20482;-67
2021/07/10 05:49:25;;;;;;;5.93;3.23;;;;;;;16.42;100.00;101163.03;5033163;28;20435;-67
2021/07/10 05:51:52;;;;;;;5.63;3.10;;;;;;;16.47;100.00;101165.59;5033390;28;20445;-67
2021/07/10 05:54:18;;;;;;;5.03;3.07;;;;;;;16.54;100.00;101165.91;5033306;28;20470;-66
2021/07/10 05:56:46;;;;;;;8.83;3.03;;;;;;;16.55;100.00;101168.31;5033396;28;20443;-67
2021/07/10 05:59:12;;;;;;;11.23;3.70;;;;;;;16.59;100.00;101165.72;5032927;28;20995;-67
2021/07/10 06:01:39;;;;;;;5.47;3.50;;;;;;;16.63;100.00;101166.69;5033285;28;20454;-67
2021/07/10 06:04:05;;;;;;;9.17;4.67;;;;;;;16.61;100.00;101166.22;5033186;28;20470;-67
2021/07/10 06:06:32;;;;;;;6.17;2.47;;;;;;;16.65;100.00;101175.38;5033145;28;20819;-68
2021/07/10 06:08:58;;;;;;;5.50;2.93;;;;;;;16.67;100.00;101167.63;5034154;28;20446;-67
2021/07/10 06:11:26;;;;;;;4.07;2.40;;;;;;;16.62;100.00;101165.09;5039893;28;20449;-68
2021/07/10 06:13:54;;;;;;;3.40;2.67;;;;;;;16.65;100.00;101165.25;5039818;28;20479;-67
2021/07/10 06:16:20;;;;;;;5.30;3.60;;;;;;;16.60;100.00;101172.81;5039720;28;20450;-68
2021/07/10 06:18:47;;;;;;;3.90;2.77;;;;;;;16.59;100.00;101171.19;5039735;28;20490;-67
2021/07/10 06:21:13;;;;;;;6.60;2.90;;;;;;;16.65;100.00;101165.25;5039442;28;20449;-68
2021/07/10 06:23:43;;;;;;;4.33;2.77;;;;;;;16.69;100.00;101170.03;5039719;28;20447;-67
2021/07/10 06:26:10;;;;;;;4.23;2.73;;;;;;;16.76;100.00;101184.84;5039598;28;20500;-68
2021/07/10 06:28:36;;;;;;;5.40;2.90;;;;;;;16.82;100.00;101185.47;5039639;28;20443;-67
2021/07/10 06:31:04;;;;;;;4.13;3.10;;;;;;;16.89;100.00;101183.81;5039407;28;21047;-68
2021/07/10 06:33:30;;;;;;;6.30;3.00;;;;;;;16.90;100.00;101185.44;5039593;28;20446;-67
2021/07/10 06:35:57;;;;;;;5.50;3.07;;;;;;;16.98;100.00;101188.47;5039575;28;20458;-67
2021/07/10 06:38:23;;;;;;;4.83;2.30;;;;;;;17.05;100.00;101186.03;5039115;28;20850;-67
2021/07/10 06:40:50;;;;;;;7.97;4.00;;;;;;;17.18;100.00;101193.19;5039503;28;20505;-66
2021/07/10 06:43:16;;;;;;;4.50;2.80;;;;;;;17.16;100.00;101187.25;5039566;28;20447;-67
2021/07/10 06:45:42;;;;;;;5.53;3.33;;;;;;;17.18;100.00;101190.47;5039458;28;20471;-67
2021/07/10 06:48:10;;;;;;;5.90;3.10;;;;;;;17.14;100.00;101195.78;5039532;28;20446;-69
2021/07/10 06:50:37;;;;;;;4.57;3.10;;;;;;;17.07;100.00;101190.03;5039655;28;20446;-74
2021/07/10 06:53:04;;;;;;;6.23;3.30;;;;;;;17.10;100.00;101200.31;5039614;28;20457;-68
2021/07/10 06:55:30;;;;;;;5.13;2.53;;;;;;;17.18;100.00;101192.38;5039394;28;20459;-68
2021/07/10 06:57:57;;;;;;;7.23;2.83;;;;;;;17.19;100.00;101194.81;5039408;28;20482;-67
2021/07/10 07:00:23;;;;;;;5.83;3.47;;;;;;;17.23;100.00;101195.75;5039336;28;20445;-67
2021/07/10 07:02:49;;;;;;;5.93;3.03;;;;;;;17.20;100.00;101195.59;5039279;28;20450;-67
2021/07/10 07:05:17;;;;;;;5.23;2.60;;;;;;;17.24;100.00;101200.09;5039165;28;20470;-69
2021/07/10 07:07:44;;;;;;;4.47;3.30;;;;;;;17.22;100.00;101196.06;5039336;28;20446;-69
2021/07/10 07:10:12;;;;;;;6.43;3.57;;;;;;;17.36;100.00;101197.44;5039519;28;20439;-68
2021/07/10 07:12:40;;;;;;;8.00;3.20;;;;;;;17.45;100.00;101199.31;5038907;28;20462;-69
2021/07/10 07:15:09;;;;;;;3.93;2.60;;;;;;;17.56;100.00;101206.78;5039507;28;20462;-69
2021/07/10 07:17:36;;;;;;;15.10;3.07;;;;;;;17.50;100.00;101205.41;5039287;28;20435;-69
2021/07/10 07:20:04;;;;;;;5.00;3.40;;;;;;;17.53;100.00;101212.13;5038948;28;20454;-69
2021/07/10 07:22:33;;;;;;;8.23;4.30;;;;;;;17.50;100.00;101213.63;5035043;28;20450;-69
2021/07/10 07:24:59;;;;;;;3.43;2.47;;;;;;;17.49;100.00;101213.97;5035901;28;20486;-67
2021/07/10 07:27:25;;;;;;;4.87;2.67;;;;;;;17.46;100.00;101217.34;5036045;28;20517;-68
2021/07/10 07:29:52;;;;;;;3.27;2.50;;;;;;;17.48;100.00;101221.34;5035897;28;20443;-68
2021/07/10 07:32:18;;;;;;;5.20;3.57;;;;;;;17.51;100.00;101217.97;5035825;28;20451;-67
2021/07/10 07:34:47;;;;;;;5.17;3.47;;;;;;;17.50;100.00;101216.34;5035528;28;21110;-68
2021/07/10 07:37:14;;;;;;;6.57;3.70;;;;;;;17.59;100.00;101217.09;5035825;28;20451;-68
2021/07/10 07:39:44;;;;;;;4.07;2.93;;;;;;;17.77;100.00;101211.53;5035670;28;21011;-68
2021/07/10 07:42:11;;;;;;;5.40;2.50;;;;;;;17.80;100.00;101227.31;5035774;28;20458;-67
2021/07/10 07:44:37;;;;;;;4.00;2.63;;;;;;;17.72;100.00;101219.91;5035620;28;20454;-68
2021/07/10 07:47:04;;;;;;;2.23;1.83;;;;;;;17.64;100.00;101219.63;5035759;28;20458;-67
2021/07/10 07:49:31;;;;;;;3.63;2.50;;;;;;;17.69;100.00;101226.84;5035298;28;20951;-67
2021/07/10 07:51:57;;;;;;;5.33;2.33;;;;;;;17.78;100.00;101227.63;5035525;28;20446;-68
2021/07/10 07:54:25;;;;;;;3.60;2.40;;;;;;;17.69;100.00;101234.28;5035532;28;20486;-67
2021/07/10 07:56:52;;;;;;;6.47;2.17;;;;;;;17.87;100.00;101239.31;5035220;28;20457;-67
2021/07/10 07:59:20;;;;;;;5.93;2.23;;;;;;;17.93;100.00;101231.72;5035306;28;20478;-67
2021/07/10 08:01:46;;;;;;;3.80;2.30;;;;;;;17.87;100.00;101242.06;5035402;28;20547;-66
2021/07/10 08:04:13;;;;;;;5.37;3.20;;;;;;;17.76;99.15;101240.88;5035191;28;20466;-66
2021/07/10 08:06:39;;;;;;;3.50;2.10;;;;;;;17.82;99.13;101236.78;5034999;28;20951;-66
2021/07/10 08:09:06;;;;;;;4.20;3.10;;;;;;;17.82;100.00;101242.28;5035250;28;20442;-66
2021/07/10 08:11:33;;;;;;;3.73;2.70;;;;;;;17.92;100.00;101245.75;5035203;28;20443;-67
2021/07/10 08:14:01;;;;;;;3.77;2.30;;;;;;;17.99;100.00;101248.75;5035069;28;20447;-67
2021/07/10 08:16:28;;;;;;;3.10;2.27;;;;;;;18.01;96.36;101246.47;5035123;28;20466;-66
2021/07/10 08:18:54;;;;;;;1.97;1.70;;;;;;;17.99;96.99;101240.53;5034723;28;21027;-66
2021/07/10 08:21:21;;;;;;;3.57;2.10;;;;;;;18.00;98.67;101255.84;5034810;28;20940;-66
2021/07/10 08:23:48;;;;;;;3.20;2.00;;;;;;;18.03;98.14;101249.69;5034733;28;20439;-67
2021/07/10 08:26:14;;;;;;;3.37;2.23;;;;;;;18.01;98.38;101243.72;5034883;28;20497;-67
2021/07/10 08:28:41;;;;;;;2.77;2.10;;;;;;;18.07;99.37;101240.47;5034558;28;20937;-66
2021/07/10 08:31:09;;;;;;;5.23;2.40;;;;;;;18.15;95.80;101249.75;5034854;28;20438;-66
2021/07/10 08:33:35;;;;;;;4.20;2.63;;;;;;;18.14;97.08;101248.13;5034341;28;20447;-66
2021/07/10 08:36:02;;;;;;;2.90;1.77;;;;;;;18.19;95.48;101261.63;5034274;28;20989;-67
2021/07/10 08:38:28;;;;;;;4.67;2.50;;;;;;;18.24;94.06;101253.22;5034600;28;20490;-66
2021/07/10 08:40:55;;;;;;;4.53;2.70;;;;;;;18.23;93.18;101257.09;5034670;28;20463;-67
2021/07/10 08:43:22;;;;;;;4.00;2.23;;;;;;;18.29;93.34;101258.50;5034589;28;20466;-68
2021/07/10 08:45:50;;;;;;;4.77;2.83;;;;;;;18.39;94.76;101263.56;5034429;28;20463;-68
2021/07/10 08:48:18;;;;;;;3.03;2.10;;;;;;;18.56;92.96;101264.53;5034451;28;20497;-68
2021/07/10 08:50:45;;;;;;;2.93;1.93;;;;;;;18.65;91.83;101257.81;5034142;28;20941;-67
2021/07/10 08:53:12;;;;;;;4.30;2.37;;;;;;;18.81;93.88;101255.25;5034322;28;20446;-68
2021/07/10 08:55:38;;;;;;;4.33;1.90;;;;;;;18.84;91.27;101253.78;5034156;28;20482;-67
2021/07/10 08:58:05;;;;;;;3.90;2.00;;;;;;;18.95;90.97;101251.38;5034163;28;20452;-68
2021/07/10 09:00:34;;;;;;;2.60;2.10;;;;;;;19.06;91.98;101255.28;5033867;28;20469;-68
2021/07/10 09:03:01;;;;;;;4.40;2.70;;;;;;;19.26;89.75;101254.41;5033889;28;20960;-68
2021/07/10 09:05:30;;;;;;;2.93;2.10;;;;;;;19.44;90.49;101260.44;5034234;28;20455;-68
2021/07/10 09:08:21;;;;;;;3.97;2.50;;;;;;;19.57;84.90;101259.28;5034093;28;20443;-69
2021/07/10 09:10:52;;;;;;;3.47;2.50;;;;;;;19.57;88.01;101253.00;5034106;28;20438;-67
2021/07/10 09:13:19;;;;;;;5.67;3.37;;;;;;;19.72;87.67;101260.56;5033985;28;20424;-68
2021/07/10 09:15:45;;;;;;;5.40;2.60;;;;;;;19.75;89.04;101259.88;5033917;28;20474;-68
2021/07/10 09:18:13;;;;;;;4.97;2.40;;;;;;;19.87;87.15;101253.53;5033819;28;20474;-68
2021/07/10 09:20:42;;;;;;;5.87;2.83;;;;;;;20.03;87.39;101256.34;5034078;28;20439;-67
2021/07/10 09:23:29;;;;;;;2.33;1.90;;;;;;;20.13;86.59;101264.91;5033800;28;20438;-67
2021/07/10 09:26:12;;;;;;;5.40;3.23;;;;;;;20.11;85.31;101267.22;5033464;28;20475;-67
2021/07/10 09:28:39;;;;;;;5.77;2.47;;;;;;;20.06;82.48;101263.91;5033644;28;20455;-67
2021/07/10 09:31:14;;;;;;;4.00;2.73;;;;;;;20.08;82.44;101267.09;5033675;28;20454;-67
2021/07/10 09:33:41;;;;;;;3.60;2.60;;;;;;;20.08;83.95;101267.09;5033901;28;20423;-67
2021/07/10 09:36:09;;;;;;;5.00;2.13;;;;;;;20.01;82.64;101262.22;5033255;28;20998;-68
2021/07/10 09:38:44;;;;;;;3.20;2.37;;;;;;;20.12;82.35;101270.75;5033366;28;20862;-68
2021/07/10 09:41:13;;;;;;;2.83;2.53;;;;;;;20.32;84.80;101260.69;5033499;28;20459;-65
2021/07/10 09:43:40;;;;;;;4.40;2.63;;;;;;;20.54;85.62;101262.94;5032829;28;20817;-66
2021/07/10 09:46:09;;;;;;;3.90;2.53;;;;;;;20.68;82.36;101279.03;5033253;28;20466;-65
2021/07/10 09:48:38;;;;;;;4.00;2.87;;;;;;;20.56;79.56;101279.09;5033453;28;20534;-66
2021/07/10 09:51:21;;;;;;;4.80;2.17;;;;;;;20.38;79.95;101281.34;5033650;28;20439;-65
2021/07/10 09:54:06;;;;;;;2.93;2.13;;;;;;;20.34;81.43;101280.44;5033079;28;20450;-64
2021/07/10 09:56:34;;;;;;;5.70;3.20;;;;;;;20.41;78.89;101272.38;5032923;28;20863;-66
2021/07/10 09:59:17;;;;;;;4.17;2.90;;;;;;;20.59;80.19;101265.44;5032708;28;20510;-65
2021/07/10 10:01:44;;;;;;;5.30;2.90;;;;;;;20.53;80.57;101274.28;5031741;28;20510;-65
2021/07/10 10:04:21;;;;;;;3.63;2.73;;;;;;;20.55;79.50;101274.75;5033117;28;20833;-65
2021/07/10 10:06:49;;;;;;;5.13;2.67;;;;;;;20.61;80.54;101273.34;5033271;28;20431;-64
2021/07/10 10:09:17;;;;;;;3.47;2.13;;;;;;;20.76;82.28;101266.25;5033231;28;20467;-64
2021/07/10 10:11:57;;;;;;;6.20;2.53;;;;;;;20.87;85.32;101265.38;5033102;28;20454;-64
2021/07/10 10:14:23;;;;;;;5.73;2.33;;;;;;;20.93;79.45;101249.38;5033411;28;20462;-65
2021/07/10 10:16:51;;;;;;;3.70;2.67;;;;;;;20.85;76.54;101259.44;5033053;28;20443;-64
2021/07/10 10:19:19;;;;;;;3.47;2.93;;;;;;;20.76;78.42;101261.56;5033206;28;20487;-65
2021/07/10 10:21:50;;;;;;;3.07;2.57;;;;;;;20.66;78.06;101253.81;5033361;28;20443;-65
2021/07/10 10:24:18;;;;;;;2.67;2.40;;;;;;;20.51;75.35;101249.09;5047820;22;20487;-71
2021/07/10 10:26:46;;;;;;;5.73;2.43;;;;;;;20.49;77.24;101265.13;5051353;28;20478;-71
2021/07/10 10:29:14;;;;;;;4.63;2.43;;;;;;;20.65;76.58;101246.72;5052906;28;20442;-71
2021/07/10 10:31:41;;;;;;;3.07;1.90;;;;;;;20.75;76.60;101257.19;5052447;28;20852;-71
2021/07/10 10:34:09;;;;;;;3.90;2.40;;;;;;;20.86;76.60;101261.03;5052550;28;21005;-71
2021/07/10 10:36:37;;;;;;;3.00;1.83;;;;;;;20.86;76.37;101257.47;5052587;28;20454;-71
2021/07/10 10:39:09;;;;;;;3.77;2.20;;;;;;;20.81;74.55;101250.28;5052730;28;20478;-71
2021/07/10 10:41:38;;;;;;;2.30;1.30;;;;;;;20.95;74.68;101254.56;5052802;28;20419;-70
2021/07/10 10:44:06;;;;;;;2.90;2.53;;;;;;;21.11;74.16;101255.34;5052736;28;20449;-71
2021/07/10 10:46:44;;;;;;;2.40;1.77;;;;;;;21.19;72.15;101254.34;5052315;28;21033;-71
2021/07/10 10:49:33;;;;;;;7.63;2.17;;;;;;;21.32;69.97;101252.34;5052697;28;20427;-71
2021/07/10 10:52:29;;;;;;;3.30;2.40;;;;;;;21.47;71.93;101247.94;5052834;28;20430;-71
2021/07/10 10:54:58;;;;;;;3.10;2.43;;;;;;;21.71;71.37;101244.97;5052540;28;20474;-71
2021/07/10 10:57:34;;;;;;;2.20;1.93;;;;;;;22.01;72.34;101247.16;5054997;28;20438;-71
2021/07/10 11:00:01;;;;;;;2.80;2.10;;;;;;;22.14;72.75;101249.44;5056256;28;20477;-71
2021/07/10 11:02:59;;;;;;;4.27;2.37;;;;;;;22.20;70.83;101251.91;5056354;28;20442;-71
2021/07/10 11:05:47;;;;;;;3.60;2.47;;;;;;;22.42;73.34;101248.41;5062629;28;20469;-72
2021/07/10 11:08:48;;;;;;;3.10;2.77;;;;;;;22.64;70.07;101258.69;5056134;28;20445;-71
2021/07/10 11:11:30;;;;;;;2.13;1.93;;;;;;;22.79;66.25;101267.22;5056014;28;20452;-72
2021/07/10 11:14:00;;;;;;;5.40;2.00;;;;;;;22.86;66.48;101262.63;5055960;28;20422;-70
2021/07/10 11:16:26;;;;;;;2.83;1.97;;;;;;;22.94;64.66;101246.22;5055928;28;20984;-71
2021/07/10 11:18:54;;;;;;;3.83;2.57;;;;;;;23.21;66.25;101255.34;5055646;28;20442;-71
2021/07/10 11:21:41;;;;;;;2.57;1.83;;;;;;;23.71;65.58;101256.88;5036049;28;20451;-72
2021/07/10 11:24:25;;;;;;;3.17;2.10;;;;;;;24.41;63.94;101261.75;5036135;28;20545;-71
2021/07/10 11:27:24;;;;;;;1.60;1.50;;;;;;;24.83;56.39;101260.56;5036051;28;20451;-71